TimeEDT,TemperatureF,Dew PointF,Humidity,Sea Level PressureIn,VisibilityMPH,Wind Direction,Wind SpeedMPH,Gust SpeedMPH,PrecipitationIn,Events,Conditions,WindDirDegrees,DateUTC
12:53 AM,62.1,60.1,93,30.07,5.0,Calm,Calm,-,N/A,,Clear,0,2013-10-04 04:53:00
1:53 AM,64.0,61.0,90,30.08,6.0,Calm,Calm,-,N/A,,Clear,0,2013-10-04 05:53:00
2:53 AM,62.1,60.1,93,30.07,5.0,Calm,Calm,-,N/A,,Partly Cloudy,0,2013-10-04 06:53:00
3:53 AM,64.0,61.0,90,30.06,5.0,Calm,Calm,-,N/A,,Partly Cloudy,0,2013-10-04 07:53:00
4:53 AM,62.1,60.1,93,30.06,3.0,Calm,Calm,-,N/A,,Scattered Clouds,0,2013-10-04 08:53:00
5:53 AM,63.0,61.0,93,30.08,4.0,Calm,Calm,-,N/A,,Mostly Cloudy,0,2013-10-04 09:53:00
6:53 AM,63.0,61.0,93,30.09,4.0,Calm,Calm,-,N/A,,Partly Cloudy,0,2013-10-04 10:53:00
7:53 AM,63.0,62.1,97,30.11,3.0,Calm,Calm,-,N/A,,Scattered Clouds,0,2013-10-04 11:53:00
8:53 AM,68.0,64.0,87,30.12,6.0,SSW,4.6,-,N/A,,Overcast,210,2013-10-04 12:53:00
9:53 AM,71.1,64.0,78,30.12,7.0,WSW,5.8,-,N/A,,Overcast,250,2013-10-04 13:53:00
10:53 AM,75.0,64.0,69,30.11,10.0,Variable,3.5,-,N/A,,Mostly Cloudy,0,2013-10-04 14:53:00
11:03 AM,73.4,62.6,69,30.13,10.0,Variable,3.5,-,N/A,,Mostly Cloudy,0,2013-10-04 15:03:00
11:13 AM,75.2,64.4,69,30.13,10.0,Variable,4.6,-,N/A,,Scattered Clouds,0,2013-10-04 15:13:00
11:51 AM,77.0,64.4,65,30.12,10.0,WNW,11.5,-,N/A,,Mostly Cloudy,290,2013-10-04 15:51:00
11:53 AM,77.0,63.0,62,30.09,10.0,WNW,9.2,-,N/A,,Mostly Cloudy,290,2013-10-04 15:53:00
12:00 PM,77.0,62.6,61,30.12,10.0,WNW,9.2,-,N/A,,Mostly Cloudy,300,2013-10-04 16:00:00
12:53 PM,78.1,63.0,60,30.09,10.0,West,8.1,-,N/A,,Mostly Cloudy,270,2013-10-04 16:53:00
1:53 PM,80.1,63.0,56,30.06,10.0,NW,6.9,-,N/A,,Scattered Clouds,310,2013-10-04 17:53:00
2:53 PM,81.0,63.0,54,30.05,10.0,SSW,5.8,-,N/A,,Clear,210,2013-10-04 18:53:00
3:53 PM,82.9,61.0,47,30.04,10.0,West,12.7,-,N/A,,Scattered Clouds,280,2013-10-04 19:53:00
4:53 PM,82.9,61.0,47,30.04,10.0,West,9.2,-,N/A,,Scattered Clouds,260,2013-10-04 20:53:00
5:53 PM,79.0,61.0,54,30.05,10.0,West,8.1,-,N/A,,Partly Cloudy,260,2013-10-04 21:53:00
6:53 PM,75.0,61.0,62,30.06,10.0,West,4.6,-,N/A,,Mostly Cloudy,260,2013-10-04 22:53:00
7:53 PM,73.9,61.0,64,30.08,10.0,WSW,5.8,-,N/A,,Mostly Cloudy,250,2013-10-04 23:53:00
8:53 PM,72.0,62.1,71,30.07,10.0,WSW,5.8,-,N/A,,Clear,250,2013-10-05 00:53:00
9:53 PM,71.1,62.1,73,30.09,10.0,Calm,Calm,-,N/A,,Scattered Clouds,0,2013-10-05 01:53:00
10:53 PM,68.0,66.0,93,30.10,6.0,SSW,6.9,-,0.04,Rain,Light Rain,210,2013-10-05 02:53:00
11:53 PM,66.9,64.9,93,30.09,9.0,SSW,5.8,-,0.02,,Overcast,210,2013-10-05 03:53:00